sensor_id;sensor_type;location;lat;lon;timestamp;temperature;humidity
19106;DHT22;9685;54.338;18.672;2023-12-20T00:00:21;9.30;99.90
19106;DHT22;9685;54.338;18.672;2023-12-20T00:02:48;9.30;99.90
19106;DHT22;9685;54.338;18.672;2023-12-20T00:05:15;9.20;99.90
19106;DHT22;9685;54.338;18.672;2023-12-20T00:07:42;9.20;99.90
19106;DHT22;9685;54.338;18.672;2023-12-20T00:10:09;9.20;99.90
19106;DHT22;9685;54.338;18.672;2023-12-20T00:12:38;9.20;99.90
19106;DHT22;9685;54.338;18.672;2023-12-20T00:15:08;9.20;99.90
19106;DHT22;9685;54.338;18.672;2023-12-20T00:17:35;9.20;99.90
19106;DHT22;9685;54.338;18.672;2023-12-20T00:20:02;9.20;99.90
19106;DHT22;9685;54.338;18.672;2023-12-20T00:22:29;9.20;99.90
19106;DHT22;9685;54.338;18.672;2023-12-20T00:24:56;9.20;99.90
19106;DHT22;9685;54.338;18.672;2023-12-20T00:27:22;9.20;99.90
19106;DHT22;9685;54.338;18.672;2023-12-20T00:29:49;9.10;99.90
19106;DHT22;9685;54.338;18.672;2023-12-20T00:32:18;9.00;99.90
19106;DHT22;9685;54.338;18.672;2023-12-20T00:34:45;9.00;99.90
19106;DHT22;9685;54.338;18.672;2023-12-20T00:37:12;9.00;99.90
19106;DHT22;9685;54.338;18.672;2023-12-20T00:39:38;9.00;99.90
19106;DHT22;9685;54.338;18.672;2023-12-20T00:42:05;9.00;99.90
19106;DHT22;9685;54.338;18.672;2023-12-20T00:44:32;9.10;99.90
19106;DHT22;9685;54.338;18.672;2023-12-20T00:46:59;8.90;99.90
19106;DHT22;9685;54.338;18.672;2023-12-20T00:49:28;9.00;99.90
19106;DHT22;9685;54.338;18.672;2023-12-20T00:51:55;9.00;99.90
19106;DHT22;9685;54.338;18.672;2023-12-20T00:54:21;8.90;99.90
19106;DHT22;9685;54.338;18.672;2023-12-20T00:56:48;8.70;99.90
19106;DHT22;9685;54.338;18.672;2023-12-20T00:59:16;8.60;99.90
19106;DHT22;9685;54.338;18.672;2023-12-20T01:01:44;8.50;99.90
19106;DHT22;9685;54.338;18.672;2023-12-20T01:04:11;8.60;99.90
19106;DHT22;9685;54.338;18.672;2023-12-20T01:06:39;8.60;99.90
19106;DHT22;9685;54.338;18.672;2023-12-20T01:09:06;8.70;99.90
19106;DHT22;9685;54.338;18.672;2023-12-20T01:11:33;8.80;99.90
19106;DHT22;9685;54.338;18.672;2023-12-20T01:14:00;8.90;99.90
19106;DHT22;9685;54.338;18.672;2023-12-20T01:16:26;8.80;99.90
19106;DHT22;9685;54.338;18.672;2023-12-20T01:18:53;8.90;99.90
19106;DHT22;9685;54.338;18.672;2023-12-20T01:21:20;8.90;99.90
19106;DHT22;9685;54.338;18.672;2023-12-20T01:23:48;8.80;99.90
19106;DHT22;9685;54.338;18.672;2023-12-20T01:26:15;8.70;99.90
19106;DHT22;9685;54.338;18.672;2023-12-20T01:28:42;8.50;99.90
19106;DHT22;9685;54.338;18.672;2023-12-20T01:31:09;8.40;99.90
19106;DHT22;9685;54.338;18.672;2023-12-20T01:33:36;8.20;99.90
19106;DHT22;9685;54.338;18.672;2023-12-20T01:36:03;8.10;99.90
19106;DHT22;9685;54.338;18.672;2023-12-20T01:38:30;8.00;99.90
19106;DHT22;9685;54.338;18.672;2023-12-20T01:41:00;7.90;99.90
19106;DHT22;9685;54.338;18.672;2023-12-20T01:43:27;7.90;99.90
19106;DHT22;9685;54.338;18.672;2023-12-20T01:45:55;7.90;99.90
19106;DHT22;9685;54.338;18.672;2023-12-20T01:48:22;7.90;99.90
19106;DHT22;9685;54.338;18.672;2023-12-20T01:50:50;7.90;99.90
19106;DHT22;9685;54.338;18.672;2023-12-20T01:53:19;8.00;99.90
19106;DHT22;9685;54.338;18.672;2023-12-20T01:55:48;7.90;99.90
19106;DHT22;9685;54.338;18.672;2023-12-20T01:58:19;7.80;99.90
19106;DHT22;9685;54.338;18.672;2023-12-20T02:00:46;7.90;99.90
19106;DHT22;9685;54.338;18.672;2023-12-20T02:03:14;7.80;99.90
19106;DHT22;9685;54.338;18.672;2023-12-20T02:05:41;7.70;99.90
19106;DHT22;9685;54.338;18.672;2023-12-20T02:08:08;7.70;99.90
19106;DHT22;9685;54.338;18.672;2023-12-20T02:10:35;7.70;99.90
19106;DHT22;9685;54.338;18.672;2023-12-20T02:13:03;7.80;99.90
19106;DHT22;9685;54.338;18.672;2023-12-20T02:15:32;7.70;99.90
19106;DHT22;9685;54.338;18.672;2023-12-20T02:17:59;7.60;99.90
19106;DHT22;9685;54.338;18.672;2023-12-20T02:20:26;7.70;99.90
19106;DHT22;9685;54.338;18.672;2023-12-20T02:22:54;7.70;99.90
19106;DHT22;9685;54.338;18.672;2023-12-20T02:25:21;7.70;99.90
19106;DHT22;9685;54.338;18.672;2023-12-20T02:27:48;7.70;99.90
19106;DHT22;9685;54.338;18.672;2023-12-20T02:30:16;7.60;99.90
19106;DHT22;9685;54.338;18.672;2023-12-20T02:32:43;7.60;99.90
19106;DHT22;9685;54.338;18.672;2023-12-20T02:35:10;7.50;99.90
19106;DHT22;9685;54.338;18.672;2023-12-20T02:37:37;7.60;99.90
19106;DHT22;9685;54.338;18.672;2023-12-20T02:40:06;7.50;99.90
19106;DHT22;9685;54.338;18.672;2023-12-20T02:42:33;7.40;99.90
19106;DHT22;9685;54.338;18.672;2023-12-20T02:45:00;7.30;99.90
19106;DHT22;9685;54.338;18.672;2023-12-20T02:47:27;7.40;99.90
19106;DHT22;9685;54.338;18.672;2023-12-20T02:49:55;7.30;99.90
19106;DHT22;9685;54.338;18.672;2023-12-20T02:52:22;7.20;99.90
19106;DHT22;9685;54.338;18.672;2023-12-20T02:54:49;7.20;99.90
19106;DHT22;9685;54.338;18.672;2023-12-20T02:57:17;7.30;99.90
19106;DHT22;9685;54.338;18.672;2023-12-20T02:59:44;7.30;99.90
19106;DHT22;9685;54.338;18.672;2023-12-20T03:02:11;7.20;99.90
19106;DHT22;9685;54.338;18.672;2023-12-20T03:04:38;7.20;99.90
19106;DHT22;9685;54.338;18.672;2023-12-20T03:07:05;7.20;99.90
19106;DHT22;9685;54.338;18.672;2023-12-20T03:09:32;7.20;99.90
19106;DHT22;9685;54.338;18.672;2023-12-20T03:11:59;7.10;99.90
19106;DHT22;9685;54.338;18.672;2023-12-20T03:14:27;7.10;99.90
19106;DHT22;9685;54.338;18.672;2023-12-20T03:16:56;7.10;99.90
19106;DHT22;9685;54.338;18.672;2023-12-20T03:19:23;7.10;99.90
19106;DHT22;9685;54.338;18.672;2023-12-20T03:21:50;7.10;99.90
19106;DHT22;9685;54.338;18.672;2023-12-20T03:24:18;7.10;99.90
19106;DHT22;9685;54.338;18.672;2023-12-20T03:26:45;7.10;99.90
19106;DHT22;9685;54.338;18.672;2023-12-20T03:29:12;7.10;99.90
19106;DHT22;9685;54.338;18.672;2023-12-20T03:31:40;7.10;99.90
19106;DHT22;9685;54.338;18.672;2023-12-20T03:34:07;7.10;99.90
19106;DHT22;9685;54.338;18.672;2023-12-20T03:36:34;7.10;99.90
19106;DHT22;9685;54.338;18.672;2023-12-20T03:39:01;7.10;99.90
19106;DHT22;9685;54.338;18.672;2023-12-20T03:41:28;7.10;99.90
19106;DHT22;9685;54.338;18.672;2023-12-20T03:43:55;7.10;99.90
19106;DHT22;9685;54.338;18.672;2023-12-20T03:46:22;7.10;99.90
19106;DHT22;9685;54.338;18.672;2023-12-20T03:48:50;7.00;99.90
19106;DHT22;9685;54.338;18.672;2023-12-20T03:51:17;7.00;99.90
19106;DHT22;9685;54.338;18.672;2023-12-20T03:53:44;6.90;99.90
19106;DHT22;9685;54.338;18.672;2023-12-20T03:56:11;6.90;99.90
19106;DHT22;9685;54.338;18.672;2023-12-20T03:58:38;6.90;99.90
19106;DHT22;9685;54.338;18.672;2023-12-20T04:01:09;6.90;99.90
19106;DHT22;9685;54.338;18.672;2023-12-20T04:03:37;6.90;99.90
19106;DHT22;9685;54.338;18.672;2023-12-20T04:06:05;6.90;99.90
19106;DHT22;9685;54.338;18.672;2023-12-20T04:08:32;6.90;99.90
19106;DHT22;9685;54.338;18.672;2023-12-20T04:10:59;6.80;99.90
19106;DHT22;9685;54.338;18.672;2023-12-20T04:13:26;6.80;99.90
19106;DHT22;9685;54.338;18.672;2023-12-20T04:15:53;6.80;99.90
19106;DHT22;9685;54.338;18.672;2023-12-20T04:18:20;6.90;99.90
19106;DHT22;9685;54.338;18.672;2023-12-20T04:20:46;6.90;99.90
19106;DHT22;9685;54.338;18.672;2023-12-20T04:23:16;6.90;99.90
19106;DHT22;9685;54.338;18.672;2023-12-20T04:25:43;6.90;99.90
19106;DHT22;9685;54.338;18.672;2023-12-20T04:28:10;6.90;99.90
19106;DHT22;9685;54.338;18.672;2023-12-20T04:30:36;6.80;99.90
19106;DHT22;9685;54.338;18.672;2023-12-20T04:33:03;6.80;99.90
19106;DHT22;9685;54.338;18.672;2023-12-20T04:35:30;6.80;99.90
19106;DHT22;9685;54.338;18.672;2023-12-20T04:37:57;6.80;99.90
19106;DHT22;9685;54.338;18.672;2023-12-20T04:40:25;6.70;99.90
19106;DHT22;9685;54.338;18.672;2023-12-20T04:42:52;6.70;99.90
19106;DHT22;9685;54.338;18.672;2023-12-20T04:45:19;6.60;99.90
19106;DHT22;9685;54.338;18.672;2023-12-20T04:47:46;6.50;99.90
19106;DHT22;9685;54.338;18.672;2023-12-20T04:50:13;6.50;99.90
19106;DHT22;9685;54.338;18.672;2023-12-20T04:52:41;6.30;99.90
19106;DHT22;9685;54.338;18.672;2023-12-20T04:55:08;6.40;99.90
19106;DHT22;9685;54.338;18.672;2023-12-20T04:57:36;6.40;99.90
19106;DHT22;9685;54.338;18.672;2023-12-20T05:00:04;6.30;99.90
19106;DHT22;9685;54.338;18.672;2023-12-20T05:02:34;6.30;99.90
19106;DHT22;9685;54.338;18.672;2023-12-20T05:05:00;6.40;99.90
19106;DHT22;9685;54.338;18.672;2023-12-20T05:07:27;6.30;99.90
19106;DHT22;9685;54.338;18.672;2023-12-20T05:09:54;6.40;99.90
19106;DHT22;9685;54.338;18.672;2023-12-20T05:12:21;6.40;99.90
19106;DHT22;9685;54.338;18.672;2023-12-20T05:14:50;6.40;99.90
19106;DHT22;9685;54.338;18.672;2023-12-20T05:17:17;6.40;99.90
19106;DHT22;9685;54.338;18.672;2023-12-20T05:19:43;6.30;99.90
19106;DHT22;9685;54.338;18.672;2023-12-20T05:22:10;6.30;99.90
19106;DHT22;9685;54.338;18.672;2023-12-20T05:24:37;6.20;99.90
19106;DHT22;9685;54.338;18.672;2023-12-20T05:27:04;6.20;99.90
19106;DHT22;9685;54.338;18.672;2023-12-20T05:29:31;6.20;99.90
19106;DHT22;9685;54.338;18.672;2023-12-20T05:31:59;6.10;99.90
19106;DHT22;9685;54.338;18.672;2023-12-20T05:34:26;6.00;99.90
19106;DHT22;9685;54.338;18.672;2023-12-20T05:36:53;6.00;99.90
19106;DHT22;9685;54.338;18.672;2023-12-20T05:39:20;6.00;99.90
19106;DHT22;9685;54.338;18.672;2023-12-20T05:41:47;5.80;99.90
19106;DHT22;9685;54.338;18.672;2023-12-20T05:44:14;5.80;99.90
19106;DHT22;9685;54.338;18.672;2023-12-20T05:46:41;5.90;99.90
19106;DHT22;9685;54.338;18.672;2023-12-20T05:49:09;5.80;99.90
19106;DHT22;9685;54.338;18.672;2023-12-20T05:51:36;5.90;99.90
19106;DHT22;9685;54.338;18.672;2023-12-20T05:54:03;6.00;99.90
19106;DHT22;9685;54.338;18.672;2023-12-20T05:56:30;6.00;99.90
19106;DHT22;9685;54.338;18.672;2023-12-20T05:58:57;5.90;99.90
19106;DHT22;9685;54.338;18.672;2023-12-20T06:01:24;5.90;99.90
19106;DHT22;9685;54.338;18.672;2023-12-20T06:03:51;5.80;99.90
19106;DHT22;9685;54.338;18.672;2023-12-20T06:06:19;5.90;99.90
19106;DHT22;9685;54.338;18.672;2023-12-20T06:08:46;5.80;99.90
19106;DHT22;9685;54.338;18.672;2023-12-20T06:11:13;5.70;99.90
19106;DHT22;9685;54.338;18.672;2023-12-20T06:13:40;5.70;99.90
19106;DHT22;9685;54.338;18.672;2023-12-20T06:16:07;5.70;99.90
19106;DHT22;9685;54.338;18.672;2023-12-20T06:18:34;5.70;99.90
19106;DHT22;9685;54.338;18.672;2023-12-20T06:21:02;5.70;99.90
19106;DHT22;9685;54.338;18.672;2023-12-20T06:23:31;5.60;99.90
19106;DHT22;9685;54.338;18.672;2023-12-20T06:25:58;5.60;99.90
19106;DHT22;9685;54.338;18.672;2023-12-20T06:28:25;5.70;99.90
19106;DHT22;9685;54.338;18.672;2023-12-20T06:30:51;5.70;99.90
19106;DHT22;9685;54.338;18.672;2023-12-20T06:33:20;5.70;99.90
19106;DHT22;9685;54.338;18.672;2023-12-20T06:35:48;5.70;99.90
19106;DHT22;9685;54.338;18.672;2023-12-20T06:38:14;5.80;99.90
19106;DHT22;9685;54.338;18.672;2023-12-20T06:40:43;5.80;99.90
19106;DHT22;9685;54.338;18.672;2023-12-20T06:43:10;5.80;99.90
19106;DHT22;9685;54.338;18.672;2023-12-20T06:45:36;5.70;99.90
19106;DHT22;9685;54.338;18.672;2023-12-20T06:48:04;5.70;99.90
19106;DHT22;9685;54.338;18.672;2023-12-20T06:50:31;5.70;99.90
19106;DHT22;9685;54.338;18.672;2023-12-20T06:52:58;5.70;99.90
19106;DHT22;9685;54.338;18.672;2023-12-20T06:55:25;5.70;99.90
19106;DHT22;9685;54.338;18.672;2023-12-20T06:57:54;5.60;99.90
19106;DHT22;9685;54.338;18.672;2023-12-20T07:00:21;5.60;99.90
19106;DHT22;9685;54.338;18.672;2023-12-20T07:02:47;5.50;99.90
19106;DHT22;9685;54.338;18.672;2023-12-20T07:05:16;5.50;99.90
19106;DHT22;9685;54.338;18.672;2023-12-20T07:07:45;5.50;99.90
19106;DHT22;9685;54.338;18.672;2023-12-20T07:10:12;5.50;99.90
19106;DHT22;9685;54.338;18.672;2023-12-20T07:12:39;5.40;99.90
19106;DHT22;9685;54.338;18.672;2023-12-20T07:15:08;5.30;99.90
19106;DHT22;9685;54.338;18.672;2023-12-20T07:17:35;5.30;99.90
19106;DHT22;9685;54.338;18.672;2023-12-20T07:20:02;5.30;99.90
19106;DHT22;9685;54.338;18.672;2023-12-20T07:22:29;5.30;99.90
19106;DHT22;9685;54.338;18.672;2023-12-20T07:24:57;5.20;99.90
19106;DHT22;9685;54.338;18.672;2023-12-20T07:27:24;5.30;99.90
19106;DHT22;9685;54.338;18.672;2023-12-20T07:29:51;5.20;99.90
19106;DHT22;9685;54.338;18.672;2023-12-20T07:32:19;5.30;99.90
19106;DHT22;9685;54.338;18.672;2023-12-20T07:34:46;5.30;99.90
19106;DHT22;9685;54.338;18.672;2023-12-20T07:37:13;5.40;99.90
19106;DHT22;9685;54.338;18.672;2023-12-20T07:39:40;5.30;99.90
19106;DHT22;9685;54.338;18.672;2023-12-20T07:42:07;5.30;99.90
19106;DHT22;9685;54.338;18.672;2023-12-20T07:44:34;5.40;99.90
19106;DHT22;9685;54.338;18.672;2023-12-20T07:47:02;5.30;99.90
19106;DHT22;9685;54.338;18.672;2023-12-20T07:49:31;5.30;99.90
19106;DHT22;9685;54.338;18.672;2023-12-20T07:51:58;5.30;99.90
19106;DHT22;9685;54.338;18.672;2023-12-20T07:54:25;5.30;99.90
19106;DHT22;9685;54.338;18.672;2023-12-20T07:56:51;5.40;99.90
19106;DHT22;9685;54.338;18.672;2023-12-20T07:59:18;5.30;99.90
19106;DHT22;9685;54.338;18.672;2023-12-20T08:01:45;5.40;99.90
19106;DHT22;9685;54.338;18.672;2023-12-20T08:04:12;5.30;99.90
19106;DHT22;9685;54.338;18.672;2023-12-20T08:06:40;5.20;99.90
19106;DHT22;9685;54.338;18.672;2023-12-20T08:09:07;5.20;99.90
19106;DHT22;9685;54.338;18.672;2023-12-20T08:11:34;5.20;99.90
19106;DHT22;9685;54.338;18.672;2023-12-20T08:14:01;5.30;99.90
19106;DHT22;9685;54.338;18.672;2023-12-20T08:16:28;5.30;99.90
19106;DHT22;9685;54.338;18.672;2023-12-20T08:18:55;5.40;99.90
19106;DHT22;9685;54.338;18.672;2023-12-20T08:21:21;5.60;99.90
19106;DHT22;9685;54.338;18.672;2023-12-20T08:23:50;5.70;99.90
19106;DHT22;9685;54.338;18.672;2023-12-20T08:26:19;5.90;99.90
19106;DHT22;9685;54.338;18.672;2023-12-20T08:28:47;5.80;99.90
19106;DHT22;9685;54.338;18.672;2023-12-20T08:31:14;5.90;99.90
19106;DHT22;9685;54.338;18.672;2023-12-20T08:33:43;5.90;99.90
19106;DHT22;9685;54.338;18.672;2023-12-20T08:36:10;6.10;99.90
19106;DHT22;9685;54.338;18.672;2023-12-20T08:38:37;6.10;99.90
19106;DHT22;9685;54.338;18.672;2023-12-20T08:41:06;6.30;99.90
19106;DHT22;9685;54.338;18.672;2023-12-20T08:43:34;6.20;99.90
19106;DHT22;9685;54.338;18.672;2023-12-20T08:46:02;6.40;99.90
19106;DHT22;9685;54.338;18.672;2023-12-20T08:48:29;6.40;99.90
19106;DHT22;9685;54.338;18.672;2023-12-20T08:50:56;6.60;99.90
19106;DHT22;9685;54.338;18.672;2023-12-20T08:53:22;6.80;99.90
19106;DHT22;9685;54.338;18.672;2023-12-20T08:55:50;6.90;99.90
19106;DHT22;9685;54.338;18.672;2023-12-20T08:58:19;7.00;99.90
19106;DHT22;9685;54.338;18.672;2023-12-20T09:00:45;7.30;99.90
19106;DHT22;9685;54.338;18.672;2023-12-20T09:03:12;7.40;99.90
19106;DHT22;9685;54.338;18.672;2023-12-20T09:05:39;7.50;99.90
19106;DHT22;9685;54.338;18.672;2023-12-20T09:08:06;7.60;99.90
19106;DHT22;9685;54.338;18.672;2023-12-20T09:10:36;7.50;99.90
19106;DHT22;9685;54.338;18.672;2023-12-20T09:13:04;7.50;99.90
19106;DHT22;9685;54.338;18.672;2023-12-20T09:15:32;7.80;99.90
19106;DHT22;9685;54.338;18.672;2023-12-20T09:17:59;7.70;99.90
19106;DHT22;9685;54.338;18.672;2023-12-20T09:20:26;7.80;99.90
19106;DHT22;9685;54.338;18.672;2023-12-20T09:22:53;8.00;99.90
19106;DHT22;9685;54.338;18.672;2023-12-20T09:25:20;8.00;99.90
19106;DHT22;9685;54.338;18.672;2023-12-20T09:27:48;7.90;99.90
19106;DHT22;9685;54.338;18.672;2023-12-20T09:30:15;7.80;99.90
19106;DHT22;9685;54.338;18.672;2023-12-20T09:32:45;7.80;99.90
19106;DHT22;9685;54.338;18.672;2023-12-20T09:35:12;7.80;99.90
19106;DHT22;9685;54.338;18.672;2023-12-20T09:37:40;7.80;99.90
19106;DHT22;9685;54.338;18.672;2023-12-20T09:40:11;8.00;99.90
19106;DHT22;9685;54.338;18.672;2023-12-20T09:42:47;8.20;99.90
19106;DHT22;9685;54.338;18.672;2023-12-20T09:45:15;8.30;99.90
19106;DHT22;9685;54.338;18.672;2023-12-20T09:47:44;8.50;99.90
19106;DHT22;9685;54.338;18.672;2023-12-20T09:50:12;8.60;99.90
19106;DHT22;9685;54.338;18.672;2023-12-20T09:52:40;8.50;99.30
19106;DHT22;9685;54.338;18.672;2023-12-20T09:55:08;8.40;99.40
19106;DHT22;9685;54.338;18.672;2023-12-20T09:57:35;8.00;99.90
19106;DHT22;9685;54.338;18.672;2023-12-20T10:00:03;8.00;99.90
19106;DHT22;9685;54.338;18.672;2023-12-20T10:02:31;8.20;99.90
19106;DHT22;9685;54.338;18.672;2023-12-20T10:04:59;8.30;99.90
19106;DHT22;9685;54.338;18.672;2023-12-20T10:07:27;8.30;99.90
19106;DHT22;9685;54.338;18.672;2023-12-20T10:09:54;8.40;99.90
19106;DHT22;9685;54.338;18.672;2023-12-20T10:12:22;8.50;99.90
19106;DHT22;9685;54.338;18.672;2023-12-20T10:14:48;8.50;98.90
19106;DHT22;9685;54.338;18.672;2023-12-20T10:17:16;8.60;98.40
19106;DHT22;9685;54.338;18.672;2023-12-20T10:19:44;8.50;98.20
19106;DHT22;9685;54.338;18.672;2023-12-20T10:22:12;8.40;98.20
19106;DHT22;9685;54.338;18.672;2023-12-20T10:24:40;8.30;98.80
19106;DHT22;9685;54.338;18.672;2023-12-20T10:27:08;8.20;98.80
19106;DHT22;9685;54.338;18.672;2023-12-20T10:29:35;8.20;99.00
19106;DHT22;9685;54.338;18.672;2023-12-20T10:32:24;8.00;99.30
19106;DHT22;9685;54.338;18.672;2023-12-20T10:34:51;8.00;99.90
19106;DHT22;9685;54.338;18.672;2023-12-20T10:37:19;7.90;99.90
19106;DHT22;9685;54.338;18.672;2023-12-20T10:39:49;7.90;98.70
19106;DHT22;9685;54.338;18.672;2023-12-20T10:42:18;7.80;99.90
19106;DHT22;9685;54.338;18.672;2023-12-20T10:44:47;7.80;99.90
19106;DHT22;9685;54.338;18.672;2023-12-20T10:47:14;7.60;99.90
19106;DHT22;9685;54.338;18.672;2023-12-20T10:49:42;7.70;99.90
19106;DHT22;9685;54.338;18.672;2023-12-20T10:52:09;7.70;99.90
19106;DHT22;9685;54.338;18.672;2023-12-20T10:54:39;7.80;99.90
19106;DHT22;9685;54.338;18.672;2023-12-20T10:57:07;7.80;99.90
19106;DHT22;9685;54.338;18.672;2023-12-20T10:59:36;7.80;99.90
19106;DHT22;9685;54.338;18.672;2023-12-20T11:02:04;7.70;99.90
19106;DHT22;9685;54.338;18.672;2023-12-20T11:04:37;7.80;99.90
19106;DHT22;9685;54.338;18.672;2023-12-20T11:07:13;7.70;99.90
19106;DHT22;9685;54.338;18.672;2023-12-20T11:09:49;7.70;99.90
19106;DHT22;9685;54.338;18.672;2023-12-20T11:12:28;7.70;99.90
19106;DHT22;9685;54.338;18.672;2023-12-20T11:14:56;7.70;99.90
19106;DHT22;9685;54.338;18.672;2023-12-20T11:17:27;7.70;99.90
19106;DHT22;9685;54.338;18.672;2023-12-20T11:20:10;7.80;99.90
19106;DHT22;9685;54.338;18.672;2023-12-20T11:22:38;7.80;99.90
19106;DHT22;9685;54.338;18.672;2023-12-20T11:25:10;7.90;99.90
19106;DHT22;9685;54.338;18.672;2023-12-20T11:27:40;7.90;99.90
19106;DHT22;9685;54.338;18.672;2023-12-20T11:30:08;7.90;99.90
19106;DHT22;9685;54.338;18.672;2023-12-20T11:32:36;7.80;99.90
19106;DHT22;9685;54.338;18.672;2023-12-20T11:35:18;7.80;99.90
19106;DHT22;9685;54.338;18.672;2023-12-20T11:37:45;7.80;99.90
19106;DHT22;9685;54.338;18.672;2023-12-20T11:40:16;7.90;99.90
19106;DHT22;9685;54.338;18.672;2023-12-20T11:42:44;7.90;99.90
19106;DHT22;9685;54.338;18.672;2023-12-20T11:45:13;8.00;99.90
19106;DHT22;9685;54.338;18.672;2023-12-20T11:47:42;8.10;99.90
19106;DHT22;9685;54.338;18.672;2023-12-20T11:50:10;8.10;99.90
19106;DHT22;9685;54.338;18.672;2023-12-20T11:52:36;8.00;99.90
19106;DHT22;9685;54.338;18.672;2023-12-20T11:55:03;8.10;99.90
19106;DHT22;9685;54.338;18.672;2023-12-20T11:57:31;8.10;99.90
19106;DHT22;9685;54.338;18.672;2023-12-20T11:59:59;8.10;99.90
19106;DHT22;9685;54.338;18.672;2023-12-20T12:02:26;8.20;99.90
19106;DHT22;9685;54.338;18.672;2023-12-20T12:04:53;8.20;99.90
19106;DHT22;9685;54.338;18.672;2023-12-20T12:07:20;8.20;99.90
19106;DHT22;9685;54.338;18.672;2023-12-20T12:09:47;8.10;99.90
19106;DHT22;9685;54.338;18.672;2023-12-20T12:12:15;8.10;99.90
19106;DHT22;9685;54.338;18.672;2023-12-20T12:14:44;8.10;99.90
19106;DHT22;9685;54.338;18.672;2023-12-20T12:17:11;8.20;99.90
19106;DHT22;9685;54.338;18.672;2023-12-20T12:19:38;8.30;99.90
19106;DHT22;9685;54.338;18.672;2023-12-20T12:22:06;8.30;99.90
19106;DHT22;9685;54.338;18.672;2023-12-20T12:24:35;8.30;99.90
19106;DHT22;9685;54.338;18.672;2023-12-20T12:27:03;8.30;99.90
19106;DHT22;9685;54.338;18.672;2023-12-20T12:29:30;8.30;99.90
19106;DHT22;9685;54.338;18.672;2023-12-20T12:31:58;8.20;99.90
19106;DHT22;9685;54.338;18.672;2023-12-20T12:34:27;8.10;99.90
19106;DHT22;9685;54.338;18.672;2023-12-20T12:36:54;8.00;99.90
19106;DHT22;9685;54.338;18.672;2023-12-20T12:39:23;8.00;99.90
19106;DHT22;9685;54.338;18.672;2023-12-20T12:41:51;8.10;99.90
19106;DHT22;9685;54.338;18.672;2023-12-20T12:44:18;8.10;99.90
19106;DHT22;9685;54.338;18.672;2023-12-20T12:46:46;8.00;99.90
19106;DHT22;9685;54.338;18.672;2023-12-20T12:49:16;8.10;99.90
19106;DHT22;9685;54.338;18.672;2023-12-20T12:51:43;8.00;99.90
19106;DHT22;9685;54.338;18.672;2023-12-20T12:54:11;8.00;99.90
19106;DHT22;9685;54.338;18.672;2023-12-20T12:56:39;8.00;99.90
19106;DHT22;9685;54.338;18.672;2023-12-20T12:59:06;8.00;99.90
19106;DHT22;9685;54.338;18.672;2023-12-20T13:01:33;8.00;99.90
19106;DHT22;9685;54.338;18.672;2023-12-20T13:04:00;7.90;99.90
19106;DHT22;9685;54.338;18.672;2023-12-20T13:06:30;8.00;99.90
19106;DHT22;9685;54.338;18.672;2023-12-20T13:08:57;8.00;99.90
19106;DHT22;9685;54.338;18.672;2023-12-20T13:11:23;7.90;99.90
19106;DHT22;9685;54.338;18.672;2023-12-20T13:13:50;7.90;99.90
19106;DHT22;9685;54.338;18.672;2023-12-20T13:16:17;7.90;99.90
19106;DHT22;9685;54.338;18.672;2023-12-20T13:18:44;7.80;99.90
19106;DHT22;9685;54.338;18.672;2023-12-20T13:21:11;7.90;99.90
19106;DHT22;9685;54.338;18.672;2023-12-20T13:23:39;7.80;99.90
19106;DHT22;9685;54.338;18.672;2023-12-20T13:26:07;7.90;99.90
19106;DHT22;9685;54.338;18.672;2023-12-20T13:28:34;7.70;99.90
19106;DHT22;9685;54.338;18.672;2023-12-20T13:31:01;7.70;99.90
19106;DHT22;9685;54.338;18.672;2023-12-20T13:33:28;7.70;99.90
19106;DHT22;9685;54.338;18.672;2023-12-20T13:35:55;7.80;99.90
19106;DHT22;9685;54.338;18.672;2023-12-20T13:38:23;7.80;99.90
19106;DHT22;9685;54.338;18.672;2023-12-20T13:40:52;7.90;99.90
19106;DHT22;9685;54.338;18.672;2023-12-20T13:43:19;7.90;99.90
19106;DHT22;9685;54.338;18.672;2023-12-20T13:45:47;7.90;99.90
19106;DHT22;9685;54.338;18.672;2023-12-20T13:48:14;7.90;99.90
19106;DHT22;9685;54.338;18.672;2023-12-20T13:50:41;7.80;99.90
19106;DHT22;9685;54.338;18.672;2023-12-20T13:53:08;7.70;99.90
19106;DHT22;9685;54.338;18.672;2023-12-20T13:55:35;7.70;99.90
19106;DHT22;9685;54.338;18.672;2023-12-20T13:58:03;7.70;99.90
19106;DHT22;9685;54.338;18.672;2023-12-20T14:00:30;7.70;99.90
19106;DHT22;9685;54.338;18.672;2023-12-20T14:02:57;7.60;99.90
19106;DHT22;9685;54.338;18.672;2023-12-20T14:05:24;7.60;99.90
19106;DHT22;9685;54.338;18.672;2023-12-20T14:07:52;7.60;99.90
19106;DHT22;9685;54.338;18.672;2023-12-20T14:10:19;7.50;99.90
19106;DHT22;9685;54.338;18.672;2023-12-20T14:12:46;7.50;99.90
19106;DHT22;9685;54.338;18.672;2023-12-20T14:15:14;7.50;99.90
19106;DHT22;9685;54.338;18.672;2023-12-20T14:17:41;7.40;99.90
19106;DHT22;9685;54.338;18.672;2023-12-20T14:20:09;7.40;99.90
19106;DHT22;9685;54.338;18.672;2023-12-20T14:22:38;7.50;99.90
19106;DHT22;9685;54.338;18.672;2023-12-20T14:25:10;7.50;99.90
19106;DHT22;9685;54.338;18.672;2023-12-20T14:27:37;7.50;99.90
19106;DHT22;9685;54.338;18.672;2023-12-20T14:30:05;7.60;99.90
19106;DHT22;9685;54.338;18.672;2023-12-20T14:32:34;7.60;99.90
19106;DHT22;9685;54.338;18.672;2023-12-20T14:35:04;7.60;99.90
19106;DHT22;9685;54.338;18.672;2023-12-20T14:37:31;7.60;99.90
19106;DHT22;9685;54.338;18.672;2023-12-20T14:39:58;7.60;99.90
19106;DHT22;9685;54.338;18.672;2023-12-20T14:42:25;7.60;99.90
19106;DHT22;9685;54.338;18.672;2023-12-20T14:44:52;7.60;99.90
19106;DHT22;9685;54.338;18.672;2023-12-20T14:47:20;7.50;99.90
19106;DHT22;9685;54.338;18.672;2023-12-20T14:49:48;7.50;99.90
19106;DHT22;9685;54.338;18.672;2023-12-20T14:52:15;7.40;99.90
19106;DHT22;9685;54.338;18.672;2023-12-20T14:54:43;7.40;99.90
19106;DHT22;9685;54.338;18.672;2023-12-20T14:57:10;7.40;99.90
19106;DHT22;9685;54.338;18.672;2023-12-20T14:59:37;7.40;99.90
19106;DHT22;9685;54.338;18.672;2023-12-20T15:02:04;7.40;99.90
19106;DHT22;9685;54.338;18.672;2023-12-20T15:04:31;7.30;99.90
19106;DHT22;9685;54.338;18.672;2023-12-20T15:06:59;7.40;99.90
19106;DHT22;9685;54.338;18.672;2023-12-20T15:09:28;7.40;99.90
19106;DHT22;9685;54.338;18.672;2023-12-20T15:11:55;7.30;99.90
19106;DHT22;9685;54.338;18.672;2023-12-20T15:14:22;7.50;99.90
19106;DHT22;9685;54.338;18.672;2023-12-20T15:16:48;7.40;99.90
19106;DHT22;9685;54.338;18.672;2023-12-20T15:19:15;7.40;99.90
19106;DHT22;9685;54.338;18.672;2023-12-20T15:21:42;7.40;99.90
19106;DHT22;9685;54.338;18.672;2023-12-20T15:24:11;7.40;99.90
19106;DHT22;9685;54.338;18.672;2023-12-20T15:26:41;7.40;99.90
19106;DHT22;9685;54.338;18.672;2023-12-20T15:29:08;7.40;99.90
19106;DHT22;9685;54.338;18.672;2023-12-20T15:31:36;7.30;99.90
19106;DHT22;9685;54.338;18.672;2023-12-20T15:34:03;7.20;99.90
19106;DHT22;9685;54.338;18.672;2023-12-20T15:36:30;7.30;99.90
19106;DHT22;9685;54.338;18.672;2023-12-20T15:38:57;7.30;99.90
19106;DHT22;9685;54.338;18.672;2023-12-20T15:41:25;7.30;99.90
19106;DHT22;9685;54.338;18.672;2023-12-20T15:43:52;7.30;99.90
19106;DHT22;9685;54.338;18.672;2023-12-20T15:46:19;7.30;99.90